Terminal Aerodrome Forecast
Issued by NWS Portland, OR

Home | Current Version | Previous Version | Text Only | Print | Product List | Glossary On
Versions: 1 2 3 4 5 6 7 8 9 10 11 12 13 14 15 16 17
000
FTUS46 KPQR 170423 AAA
TAFAST
TAF AMD
KAST 170423Z 1704/1724 19011KT 5SM -RA BR BKN015 OVC025
     FM170900 19010KT 6SM -RA BR BKN009 OVC015
     FM171500 19012G22KT 4SM RADZ BR BKN015 OVC025
     FM172100 24012KT 5SM -RADZ BR BKN020 OVC035=

USA.gov is the U.S. government's official web portal to all federal, state and local government web resources and services.